Time;durP1;ratioP1;P1;durP2;ratioP2;P2;SDS_P1;SDS_P2;PMS_P1;PMS_P2;Temp;Humidity;BMP_temperature;BMP_pressure;BME280_temperature;BME280_humidity;BME280_pressure;Samples;Min_cycle;Max_cycle;Signal;HPM_P1;HPM_P2
2022/10/28 00:01:27;;;;;;;14.07;4.07;;;18.50;99.90;;;;;;5054824;28;20194;-78
2022/10/28 00:03:56;;;;;;;10.00;3.87;;;18.50;99.90;;;;;;5054088;28;20256;-78
2022/10/28 00:06:24;;;;;;;15.00;4.77;;;18.50;99.90;;;;;;5054014;28;20210;-79
2022/10/28 00:08:53;;;;;;;11.40;4.50;;;18.50;99.90;;;;;;5054123;28;20561;-78
2022/10/28 00:11:22;;;;;;;11.63;4.10;;;18.40;99.90;;;;;;5053956;28;20657;-77
2022/10/28 00:13:49;;;;;;;8.63;3.87;;;18.40;99.90;;;;;;5053965;28;20234;-78
2022/10/28 00:16:18;;;;;;;11.73;3.70;;;18.30;99.90;;;;;;5054157;28;20209;-78
2022/10/28 00:18:45;;;;;;;12.23;4.27;;;18.20;99.90;;;;;;5054090;28;20195;-79
2022/10/28 00:21:14;;;;;;;15.00;4.60;;;18.20;99.90;;;;;;5053934;28;20203;-79
2022/10/28 00:23:41;;;;;;;10.27;3.73;;;18.30;99.90;;;;;;5053501;28;20226;-77
2022/10/28 00:26:11;;;;;;;11.63;4.40;;;18.30;99.90;;;;;;5052343;28;20209;-79
2022/10/28 00:28:41;;;;;;;16.23;4.40;;;18.30;99.90;;;;;;5054183;28;20198;-77
2022/10/28 00:31:09;;;;;;;10.93;4.13;;;18.30;99.90;;;;;;5053524;28;20611;-78
2022/10/28 00:33:37;;;;;;;11.97;4.13;;;18.40;99.90;;;;;;5053608;28;20220;-76
2022/10/28 00:36:13;;;;;;;6.97;3.63;;;18.30;99.90;;;;;;5053541;28;20574;-77
2022/10/28 00:38:40;;;;;;;9.93;4.03;;;18.20;99.90;;;;;;5053358;28;20206;-76
2022/10/28 00:41:08;;;;;;;14.13;3.97;;;18.30;99.90;;;;;;5053536;28;20309;-76
2022/10/28 00:43:38;;;;;;;13.13;4.23;;;18.20;99.90;;;;;;5053505;28;20229;-77
2022/10/28 00:46:13;;;;;;;13.03;4.07;;;18.20;99.90;;;;;;5053263;28;20212;-76
2022/10/28 00:48:43;;;;;;;10.60;4.07;;;18.10;99.90;;;;;;5053702;28;20197;-77
2022/10/28 00:51:10;;;;;;;9.47;4.70;;;18.00;99.90;;;;;;5053071;28;20201;-76
2022/10/28 00:53:40;;;;;;;8.80;4.53;;;18.00;99.90;;;;;;5053095;28;20575;-76
2022/10/28 00:56:08;;;;;;;12.53;4.20;;;18.00;99.90;;;;;;5053147;28;20208;-79
2022/10/28 00:58:38;;;;;;;9.90;4.20;;;17.90;99.90;;;;;;5053498;28;20202;-80
2022/10/28 01:01:05;;;;;;;7.97;4.30;;;17.90;99.90;;;;;;5053188;28;20201;-76
2022/10/28 01:03:31;;;;;;;10.27;4.37;;;18.00;99.90;;;;;;5052813;28;20224;-78
2022/10/28 01:05:59;;;;;;;8.10;3.83;;;17.90;99.90;;;;;;5052782;28;20202;-78
2022/10/28 01:08:26;;;;;;;10.87;4.10;;;18.00;99.90;;;;;;5053035;28;20544;-78
2022/10/28 01:11:21;;;;;;;14.93;4.27;;;18.10;99.90;;;;;;5052769;28;20213;-78
2022/10/28 01:14:04;;;;;;;9.00;4.23;;;18.10;99.90;;;;;;5052937;28;20235;-77
2022/10/28 01:16:39;;;;;;;14.43;3.90;;;18.00;99.90;;;;;;5053260;28;20206;-76
2022/10/28 01:19:48;;;;;;;15.37;4.03;;;18.00;99.90;;;;;;5053268;28;20200;-78
2022/10/28 01:22:21;;;;;;;9.47;4.07;;;18.00;99.90;;;;;;5052559;28;20209;-77
2022/10/28 01:25:04;;;;;;;6.43;3.53;;;17.90;99.90;;;;;;5052573;28;20721;-77
2022/10/28 01:28:12;;;;;;;13.27;3.87;;;17.90;99.90;;;;;;5052913;28;20200;-78
2022/10/28 01:31:04;;;;;;;13.50;4.13;;;17.90;99.90;;;;;;5046324;28;20202;-76
2022/10/28 01:33:35;;;;;;;13.57;3.80;;;17.70;99.90;;;;;;5052945;28;20216;-75
2022/10/28 01:36:13;;;;;;;11.90;4.37;;;17.70;99.90;;;;;;5052632;28;20299;-76
2022/10/28 01:38:50;;;;;;;12.63;4.17;;;17.80;99.90;;;;;;5056026;28;20207;-80
2022/10/28 01:41:23;;;;;;;6.20;3.57;;;17.80;99.90;;;;;;5057152;28;20208;-76
2022/10/28 01:43:56;;;;;;;13.03;3.73;;;17.70;99.90;;;;;;5056247;28;20213;-77
2022/10/28 01:46:28;;;;;;;12.47;3.87;;;17.60;99.90;;;;;;5057126;28;20202;-77
2022/10/28 01:48:59;;;;;;;15.60;4.70;;;17.60;99.90;;;;;;5057135;28;20205;-78
2022/10/28 01:51:32;;;;;;;8.43;3.50;;;17.60;99.90;;;;;;5056421;28;20193;-76
2022/10/28 01:54:03;;;;;;;5.90;4.17;;;17.60;99.90;;;;;;5056929;28;20220;-76
2022/10/28 01:56:33;;;;;;;8.73;4.20;;;17.60;99.90;;;;;;5056925;28;20194;-75
2022/10/28 01:59:03;;;;;;;13.00;4.03;;;17.60;99.90;;;;;;5056746;28;20205;-77
2022/10/28 02:01:32;;;;;;;11.97;4.60;;;17.60;99.90;;;;;;5056375;28;20205;-77
2022/10/28 02:03:59;;;;;;;17.97;4.53;;;17.70;99.90;;;;;;5056355;28;20240;-76
2022/10/28 02:06:30;;;;;;;11.20;4.10;;;17.70;99.90;;;;;;5056270;28;20213;-78
2022/10/28 02:09:07;;;;;;;9.57;3.60;;;17.70;99.90;;;;;;5056565;28;20632;-76
2022/10/28 02:12:05;;;;;;;11.03;3.80;;;17.60;99.90;;;;;;5056103;28;20192;-76
2022/10/28 02:14:58;;;;;;;10.07;4.03;;;17.70;99.90;;;;;;5056150;28;20241;-76
2022/10/28 02:17:38;;;;;;;13.27;4.27;;;17.70;99.90;;;;;;5056449;28;20216;-76
2022/10/28 02:20:14;;;;;;;12.73;4.90;;;17.60;99.90;;;;;;5054949;28;20425;-78
2022/10/28 02:22:50;;;;;;;10.57;4.10;;;17.70;99.90;;;;;;5055987;28;20206;-82
2022/10/28 02:25:21;;;;;;;11.60;4.23;;;17.60;99.90;;;;;;5056314;28;20236;-76
2022/10/28 02:27:56;;;;;;;13.63;3.63;;;17.50;99.90;;;;;;5056340;28;20205;-76
2022/10/28 02:30:26;;;;;;;10.60;4.33;;;17.40;99.90;;;;;;5056269;28;20232;-76
2022/10/28 02:32:59;;;;;;;13.50;4.37;;;17.50;99.90;;;;;;5055841;28;20201;-77
2022/10/28 02:35:31;;;;;;;10.27;4.07;;;17.40;99.90;;;;;;5055656;28;20571;-79
2022/10/28 02:38:00;;;;;;;8.00;3.83;;;17.40;99.90;;;;;;5055926;28;20696;-77
2022/10/28 02:40:29;;;;;;;10.93;4.23;;;17.50;99.90;;;;;;5055553;28;20953;-77
2022/10/28 02:42:59;;;;;;;12.20;4.07;;;17.40;99.90;;;;;;5056034;28;20211;-78
2022/10/28 02:45:31;;;;;;;16.57;4.23;;;17.40;99.90;;;;;;5055693;28;20698;-77
2022/10/28 02:48:03;;;;;;;13.63;5.03;;;17.30;99.90;;;;;;5054902;28;20421;-77
2022/10/28 02:50:34;;;;;;;9.93;4.30;;;17.40;99.90;;;;;;5054375;28;20205;-76
2022/10/28 02:53:04;;;;;;;10.53;4.03;;;17.40;99.90;;;;;;5055892;28;20194;-79
2022/10/28 02:55:37;;;;;;;14.10;4.00;;;17.40;99.90;;;;;;5055529;28;20211;-78
2022/10/28 02:58:05;;;;;;;10.30;4.03;;;17.40;99.90;;;;;;5055491;28;20200;-76
2022/10/28 03:00:32;;;;;;;10.53;4.50;;;17.50;99.90;;;;;;5055646;28;20189;-76
2022/10/28 03:03:00;;;;;;;8.13;3.80;;;17.40;99.90;;;;;;5055349;28;20206;-77
2022/10/28 03:05:27;;;;;;;15.23;4.40;;;17.40;99.90;;;;;;5055715;28;20231;-80
2022/10/28 03:07:54;;;;;;;12.90;4.17;;;17.40;99.90;;;;;;5055200;28;20557;-79
2022/10/28 03:10:20;;;;;;;14.37;4.63;;;17.40;99.90;;;;;;5055590;28;20197;-76
2022/10/28 03:12:47;;;;;;;9.40;4.20;;;17.30;99.90;;;;;;5054809;28;20207;-76
2022/10/28 03:15:14;;;;;;;13.98;4.85;;;17.30;99.90;;;;;;5054695;28;20430;-76
2022/10/28 03:17:41;;;;;;;15.30;4.83;;;17.40;99.90;;;;;;5054992;28;20668;-77
2022/10/28 03:20:11;;;;;;;14.27;4.30;;;17.30;99.90;;;;;;5054978;28;20564;-76
2022/10/28 03:22:37;;;;;;;10.43;4.33;;;17.30;99.90;;;;;;5055157;28;20552;-79
2022/10/28 03:25:05;;;;;;;13.10;4.37;;;17.20;99.90;;;;;;5054831;28;20236;-77
2022/10/28 03:27:32;;;;;;;16.83;4.17;;;17.20;99.90;;;;;;5055066;28;20202;-76
2022/10/28 03:29:59;;;;;;;13.37;4.80;;;17.10;99.90;;;;;;5054927;28;20204;-76
2022/10/28 03:32:25;;;;;;;10.20;4.33;;;17.00;99.90;;;;;;5054898;28;20187;-77
2022/10/28 03:34:52;;;;;;;17.17;4.13;;;17.00;99.90;;;;;;5054509;28;20204;-76
2022/10/28 03:37:20;;;;;;;10.80;4.10;;;17.00;99.90;;;;;;5054766;28;20208;-76
2022/10/28 03:39:47;;;;;;;12.03;4.57;;;17.00;99.90;;;;;;5054737;28;20285;-78
2022/10/28 03:42:14;;;;;;;14.02;5.43;;;17.00;99.90;;;;;;5054140;28;20797;-79
2022/10/28 03:44:40;;;;;;;18.70;5.00;;;17.20;99.90;;;;;;5054457;28;20237;-76
2022/10/28 03:47:07;;;;;;;16.13;4.67;;;17.20;99.90;;;;;;5054545;28;20223;-76
2022/10/28 03:49:34;;;;;;;18.93;4.80;;;17.20;99.90;;;;;;5054848;28;20208;-80
2022/10/28 03:52:01;;;;;;;9.83;4.37;;;17.10;99.90;;;;;;5054548;28;20205;-76
2022/10/28 03:54:29;;;;;;;10.83;4.57;;;17.00;99.90;;;;;;5054234;28;20224;-76
2022/10/28 03:56:55;;;;;;;13.97;4.47;;;17.00;99.90;;;;;;5054714;28;20208;-76
2022/10/28 03:59:22;;;;;;;11.53;4.20;;;17.00;99.90;;;;;;5054373;28;20206;-76
2022/10/28 04:01:49;;;;;;;14.90;4.40;;;17.00;99.90;;;;;;5053897;28;20665;-77
2022/10/28 04:04:16;;;;;;;11.67;4.53;;;17.00;99.90;;;;;;5054146;28;20211;-77
2022/10/28 04:06:43;;;;;;;11.17;4.70;;;17.00;99.90;;;;;;5054431;28;20212;-78
2022/10/28 04:09:09;;;;;;;13.27;3.77;;;16.90;99.90;;;;;;5054296;28;20204;-78
2022/10/28 04:11:37;;;;;;;15.00;4.97;;;16.80;99.90;;;;;;5054393;28;20203;-79
2022/10/28 04:14:04;;;;;;;12.33;4.40;;;16.70;99.90;;;;;;5053922;28;20242;-76
2022/10/28 04:16:32;;;;;;;14.33;4.23;;;16.60;99.90;;;;;;5053994;28;20200;-77
2022/10/28 04:18:59;;;;;;;11.97;5.13;;;16.60;99.90;;;;;;5054181;28;20213;-76
2022/10/28 04:21:26;;;;;;;13.53;5.07;;;16.70;99.90;;;;;;5053705;28;20658;-76
2022/10/28 04:23:53;;;;;;;9.67;4.30;;;16.70;99.90;;;;;;5054144;28;20210;-77
2022/10/28 04:26:19;;;;;;;11.27;4.40;;;16.80;99.90;;;;;;5054051;28;20237;-77
2022/10/28 04:28:47;;;;;;;10.60;4.07;;;16.80;99.90;;;;;;5054223;28;20200;-81
2022/10/28 04:31:14;;;;;;;12.97;5.23;;;16.80;99.90;;;;;;5053535;28;20205;-79
2022/10/28 04:33:41;;;;;;;13.87;4.40;;;16.80;99.90;;;;;;5053486;28;20198;-77
2022/10/28 04:36:08;;;;;;;13.67;4.90;;;16.90;99.90;;;;;;5053591;28;20441;-78
2022/10/28 04:38:35;;;;;;;12.20;4.67;;;16.80;99.90;;;;;;5053793;28;20203;-76
2022/10/28 04:41:02;;;;;;;12.30;4.80;;;16.80;99.90;;;;;;5053708;28;20194;-77
2022/10/28 04:43:29;;;;;;;9.33;4.60;;;16.80;99.90;;;;;;5053433;28;20650;-77
2022/10/28 04:45:57;;;;;;;18.03;4.87;;;16.80;99.90;;;;;;5046615;28;20226;-80
2022/10/28 04:48:24;;;;;;;17.77;4.77;;;16.80;99.90;;;;;;5033832;28;20202;-76
2022/10/28 04:50:52;;;;;;;19.50;5.20;;;16.80;99.90;;;;;;5033399;28;20204;-79
2022/10/28 04:53:19;;;;;;;15.77;5.00;;;16.80;99.90;;;;;;5033628;28;20251;-78
2022/10/28 04:55:45;;;;;;;16.13;4.80;;;16.70;99.90;;;;;;5033435;28;20207;-78
2022/10/28 04:58:12;;;;;;;14.50;5.00;;;16.60;99.90;;;;;;5033620;28;20570;-76
2022/10/28 05:00:39;;;;;;;13.47;5.23;;;16.50;99.90;;;;;;5033198;28;20559;-80
2022/10/28 05:03:07;;;;;;;16.20;4.93;;;16.60;99.90;;;;;;5033356;28;20211;-76
2022/10/28 05:05:34;;;;;;;16.03;4.70;;;16.60;99.90;;;;;;5033382;28;20268;-76
2022/10/28 05:08:01;;;;;;;13.90;4.77;;;16.50;99.90;;;;;;5033403;28;20209;-78
2022/10/28 05:10:29;;;;;;;14.20;5.17;;;16.50;99.90;;;;;;5033393;28;20196;-77
2022/10/28 05:12:55;;;;;;;12.40;4.70;;;16.50;99.90;;;;;;5032744;28;20213;-78
2022/10/28 05:15:23;;;;;;;15.17;5.07;;;16.50;99.90;;;;;;5032723;28;20569;-77
2022/10/28 05:17:50;;;;;;;14.57;4.60;;;16.60;99.90;;;;;;5033315;28;20223;-77
2022/10/28 05:20:19;;;;;;;13.90;4.57;;;16.60;99.90;;;;;;5033764;28;20216;-79
2022/10/28 05:22:47;;;;;;;13.90;4.47;;;16.60;99.90;;;;;;5033546;28;20218;-78
2022/10/28 05:25:14;;;;;;;10.37;4.07;;;16.60;99.90;;;;;;5034290;28;20227;-76
2022/10/28 05:27:41;;;;;;;16.20;4.63;;;16.70;99.90;;;;;;5033085;28;20207;-78
2022/10/28 05:30:10;;;;;;;12.40;4.53;;;16.70;99.90;;;;;;5032884;28;20199;-77
2022/10/28 05:32:37;;;;;;;18.67;4.70;;;16.50;99.90;;;;;;5033718;28;20193;-76
2022/10/28 05:35:05;;;;;;;14.33;4.40;;;16.60;99.90;;;;;;5033068;28;20204;-76
2022/10/28 05:37:33;;;;;;;13.43;5.67;;;16.60;99.90;;;;;;5032865;28;20212;-77
2022/10/28 05:40:00;;;;;;;9.87;4.50;;;16.60;99.90;;;;;;5032856;28;20686;-79
2022/10/28 05:42:26;;;;;;;11.13;4.20;;;16.50;99.90;;;;;;5032630;28;20223;-76
2022/10/28 05:44:53;;;;;;;10.30;4.90;;;16.60;99.90;;;;;;5033224;28;20188;-77
2022/10/28 05:47:20;;;;;;;15.13;4.90;;;16.60;99.90;;;;;;5032536;28;20196;-78
2022/10/28 05:49:47;;;;;;;11.90;4.63;;;16.70;99.90;;;;;;5033189;28;20195;-79
2022/10/28 05:52:13;;;;;;;16.03;5.10;;;16.70;99.90;;;;;;5050029;28;20205;-77
2022/10/28 05:54:42;;;;;;;6.20;4.40;;;16.70;99.90;;;;;;5052729;28;20198;-76
2022/10/28 05:57:09;;;;;;;17.43;4.83;;;16.60;99.90;;;;;;5052425;28;20202;-76
2022/10/28 05:59:36;;;;;;;10.90;4.60;;;16.60;99.90;;;;;;5052667;28;20217;-76
2022/10/28 06:02:03;;;;;;;14.77;4.37;;;16.50;99.90;;;;;;5052968;28;20567;-77
2022/10/28 06:04:31;;;;;;;11.27;4.87;;;16.50;99.90;;;;;;5052844;28;20206;-76
2022/10/28 06:06:58;;;;;;;12.27;5.43;;;16.40;99.90;;;;;;5053109;28;20383;-78
2022/10/28 06:09:28;;;;;;;13.00;4.37;;;16.40;99.90;;;;;;5053159;28;20209;-80
2022/10/28 06:11:56;;;;;;;10.37;5.17;;;16.40;99.90;;;;;;5051807;28;20230;-77
2022/10/28 06:14:23;;;;;;;13.40;4.87;;;16.40;99.90;;;;;;5052165;28;20239;-78
2022/10/28 06:16:49;;;;;;;17.00;5.00;;;16.50;99.90;;;;;;5052407;28;20207;-78
2022/10/28 06:19:16;;;;;;;24.50;6.73;;;16.50;99.90;;;;;;5052719;28;20579;-77
2022/10/28 06:21:43;;;;;;;17.43;6.17;;;16.50;99.90;;;;;;5052816;28;20187;-76
2022/10/28 06:24:10;;;;;;;18.73;5.70;;;16.50;99.90;;;;;;5054684;28;20210;-76
2022/10/28 06:26:37;;;;;;;18.83;6.20;;;16.50;99.90;;;;;;5055562;28;20243;-77
2022/10/28 06:29:05;;;;;;;14.00;5.80;;;16.60;99.90;;;;;;5055949;28;20582;-77
2022/10/28 06:31:32;;;;;;;16.70;5.90;;;16.60;99.90;;;;;;5055989;28;20203;-79
2022/10/28 06:33:59;;;;;;;13.77;4.80;;;16.60;99.90;;;;;;5016205;28;20208;-77
2022/10/28 06:36:26;;;;;;;16.77;5.30;;;16.50;99.90;;;;;;5023970;28;20650;-77
2022/10/28 06:38:53;;;;;;;16.57;5.30;;;16.50;99.90;;;;;;5055466;28;20199;-77
2022/10/28 06:41:20;;;;;;;19.37;4.73;;;16.50;99.90;;;;;;5055639;28;20206;-76
2022/10/28 06:43:46;;;;;;;16.40;4.97;;;16.50;99.90;;;;;;5048749;28;20199;-76
2022/10/28 06:46:14;;;;;;;14.17;5.50;;;16.50;99.90;;;;;;5035740;28;20718;-78
2022/10/28 06:48:41;;;;;;;13.33;4.93;;;16.50;99.90;;;;;;5035791;28;20191;-76
2022/10/28 06:51:08;;;;;;;20.37;5.57;;;16.50;99.90;;;;;;5035853;28;20218;-77
2022/10/28 06:53:34;;;;;;;16.20;4.80;;;16.50;99.90;;;;;;5035364;28;20204;-76
2022/10/28 06:56:01;;;;;;;10.97;4.90;;;16.60;99.90;;;;;;5043751;28;20195;-80
2022/10/28 06:58:28;;;;;;;14.23;4.60;;;16.70;99.90;;;;;;5055718;28;20225;-77
2022/10/28 07:00:55;;;;;;;12.23;4.67;;;16.70;99.90;;;;;;5055557;28;20657;-78
2022/10/28 07:03:23;;;;;;;12.07;4.67;;;16.70;99.90;;;;;;5055111;28;20214;-79
2022/10/28 07:05:50;;;;;;;17.07;5.53;;;16.70;99.90;;;;;;5055488;28;20226;-77
2022/10/28 07:08:17;;;;;;;11.97;4.67;;;16.80;99.90;;;;;;5055317;28;20261;-83
2022/10/28 07:10:44;;;;;;;10.77;4.77;;;16.90;99.90;;;;;;5055210;28;20198;-77
2022/10/28 07:13:10;;;;;;;15.97;4.50;;;16.90;99.90;;;;;;5055297;28;20216;-80
2022/10/28 07:15:37;;;;;;;20.03;4.60;;;16.80;99.90;;;;;;5054728;28;20222;-78
2022/10/28 07:18:04;;;;;;;13.40;4.50;;;16.90;99.90;;;;;;5054385;28;20571;-80
2022/10/28 07:20:32;;;;;;;10.23;5.40;;;16.90;99.90;;;;;;5055404;28;20199;-79
2022/10/28 07:23:00;;;;;;;13.33;4.97;;;17.00;99.90;;;;;;5055410;28;20194;-77
2022/10/28 07:25:28;;;;;;;21.83;5.07;;;17.10;99.90;;;;;;5054977;28;20206;-77
2022/10/28 07:27:56;;;;;;;15.90;5.40;;;17.10;99.90;;;;;;5055226;28;20204;-78
2022/10/28 07:30:23;;;;;;;14.17;4.87;;;17.30;99.90;;;;;;5055268;28;20201;-76
2022/10/28 07:32:50;;;;;;;12.90;4.37;;;17.30;99.90;;;;;;5055080;28;20209;-79
2022/10/28 07:35:16;;;;;;;16.40;4.87;;;17.40;99.90;;;;;;5054292;28;20238;-80
2022/10/28 07:37:45;;;;;;;13.07;4.77;;;17.40;99.90;;;;;;5055359;28;20194;-77
2022/10/28 07:40:12;;;;;;;10.63;4.70;;;17.50;99.90;;;;;;5054636;28;20209;-78
2022/10/28 07:42:39;;;;;;;18.33;4.63;;;17.70;99.90;;;;;;5055028;28;20212;-77
2022/10/28 07:45:07;;;;;;;14.30;5.43;;;17.70;99.90;;;;;;5055209;28;20197;-80
2022/10/28 07:47:33;;;;;;;12.03;4.23;;;17.80;99.90;;;;;;5054722;28;20233;-78
2022/10/28 07:50:00;;;;;;;9.43;4.23;;;17.90;99.90;;;;;;5054846;28;20209;-79
2022/10/28 07:52:27;;;;;;;15.30;4.50;;;18.00;99.90;;;;;;5054799;28;20553;-79
2022/10/28 07:54:55;;;;;;;13.57;4.40;;;18.10;99.90;;;;;;5054672;28;20200;-80
2022/10/28 07:57:22;;;;;;;17.37;4.97;;;18.00;99.90;;;;;;5054948;28;20202;-88
2022/10/28 07:59:48;;;;;;;13.73;4.47;;;18.10;99.90;;;;;;5054476;28;20191;-79
2022/10/28 08:02:17;;;;;;;16.57;4.40;;;18.20;99.90;;;;;;5054578;28;20212;-78
2022/10/28 08:04:44;;;;;;;17.90;4.73;;;18.30;99.90;;;;;;5054585;28;20563;-80
2022/10/28 08:07:11;;;;;;;9.80;4.57;;;18.30;99.90;;;;;;5053881;28;20226;-77
2022/10/28 08:09:38;;;;;;;17.53;5.30;;;18.40;99.90;;;;;;5059106;28;20557;-78
2022/10/28 08:12:08;;;;;;;14.57;4.43;;;18.40;99.90;;;;;;5061573;28;20209;-76
2022/10/28 08:14:35;;;;;;;14.63;4.57;;;18.40;99.90;;;;;;5061048;28;20241;-77
2022/10/28 08:17:02;;;;;;;11.43;4.27;;;18.50;99.90;;;;;;5061112;28;20203;-79
2022/10/28 08:19:28;;;;;;;12.93;4.20;;;18.40;99.90;;;;;;5061075;28;20795;-76
2022/10/28 08:21:55;;;;;;;13.93;4.93;;;18.50;99.90;;;;;;5060481;28;20191;-78
2022/10/28 08:24:22;;;;;;;12.63;4.07;;;18.50;99.90;;;;;;5059276;28;20202;-85
2022/10/28 08:26:49;;;;;;;11.43;4.73;;;18.50;99.90;;;;;;5056120;28;20735;-84
2022/10/28 08:29:17;;;;;;;11.57;4.43;;;18.60;99.90;;;;;;5055315;28;20670;-82
2022/10/28 08:31:44;;;;;;;18.97;5.13;;;18.60;99.90;;;;;;5055419;28;20197;-81
2022/10/28 08:34:11;;;;;;;13.77;4.70;;;18.50;99.90;;;;;;5056388;28;20206;-83
2022/10/28 08:36:38;;;;;;;15.00;4.70;;;18.50;99.90;;;;;;5055106;28;20217;-81
2022/10/28 08:39:05;;;;;;;12.97;4.33;;;18.50;99.90;;;;;;5055430;28;20210;-90
2022/10/28 08:41:38;;;;;;;11.03;4.70;;;18.60;99.90;;;;;;5054373;28;20561;-82
2022/10/28 08:44:41;;;;;;;17.10;4.53;;;18.70;99.90;;;;;;5053715;28;20210;-81
2022/10/28 08:47:16;;;;;;;14.13;4.20;;;18.70;99.90;;;;;;5010623;28;20230;-81
2022/10/28 08:49:45;;;;;;;15.07;5.13;;;18.90;99.90;;;;;;5053907;28;20198;-83
2022/10/28 08:52:22;;;;;;;11.23;4.53;;;18.90;99.90;;;;;;5053437;28;20680;-83
2022/10/28 08:54:53;;;;;;;14.57;4.40;;;19.10;99.90;;;;;;5053644;28;20210;-82
2022/10/28 08:57:27;;;;;;;8.57;4.10;;;19.20;99.90;;;;;;5053259;28;20206;-81
2022/10/28 08:59:55;;;;;;;14.27;4.53;;;19.20;99.90;;;;;;5053598;28;20205;-86
2022/10/28 09:02:24;;;;;;;14.80;4.57;;;19.20;99.90;;;;;;5053382;28;20586;-83
2022/10/28 09:04:56;;;;;;;12.37;5.40;;;19.30;99.90;;;;;;5053251;28;20215;-83
2022/10/28 09:07:24;;;;;;;12.90;4.70;;;19.40;99.90;;;;;;5053145;28;20230;-83
2022/10/28 09:09:53;;;;;;;16.97;4.70;;;19.50;99.90;;;;;;5053291;28;20229;-83
2022/10/28 09:12:31;;;;;;;8.13;3.63;;;19.50;99.90;;;;;;5053459;28;20194;-85
2022/10/28 09:15:17;;;;;;;11.57;3.80;;;19.60;99.90;;;;;;5053161;28;20730;-81
2022/10/28 09:17:52;;;;;;;15.83;4.93;;;19.70;99.90;;;;;;5053217;28;20213;-83
2022/10/28 09:20:24;;;;;;;11.60;4.20;;;19.70;99.90;;;;;;5053295;28;20248;-82
2022/10/28 09:22:56;;;;;;;13.33;4.33;;;19.80;99.90;;;;;;5053070;28;20202;-81
2022/10/28 09:25:28;;;;;;;17.23;4.87;;;19.90;99.90;;;;;;5053216;28;20559;-83
2022/10/28 09:28:20;;;;;;;12.03;4.53;;;20.00;99.90;;;;;;5052808;28;20226;-84
2022/10/28 09:30:57;;;;;;;18.25;4.40;;;20.10;99.90;;;;;;5052782;28;20785;-84
2022/10/28 09:33:51;;;;;;;22.53;4.67;;;20.30;99.90;;;;;;5052850;28;20212;-86
2022/10/28 09:36:24;;;;;;;12.50;4.03;;;20.30;99.90;;;;;;5052724;28;20672;-82
2022/10/28 09:38:54;;;;;;;15.97;4.80;;;20.40;99.90;;;;;;5052985;28;20210;-83
2022/10/28 09:41:25;;;;;;;14.60;3.97;;;20.40;99.90;;;;;;5052961;28;20662;-82
2022/10/28 09:43:56;;;;;;;14.07;4.20;;;20.60;99.90;;;;;;5052961;28;20219;-84
2022/10/28 09:46:28;;;;;;;18.40;4.77;;;20.70;99.90;;;;;;5052697;28;20244;-84
2022/10/28 09:48:59;;;;;;;11.93;4.77;;;20.70;99.90;;;;;;5052405;28;20202;-82
2022/10/28 09:51:32;;;;;;;15.67;4.30;;;20.80;99.90;;;;;;5053073;28;20209;-84
2022/10/28 09:54:00;;;;;;;17.40;4.40;;;20.80;99.90;;;;;;5053040;28;20202;-81
2022/10/28 09:56:28;;;;;;;11.83;4.00;;;20.80;99.90;;;;;;5052919;28;20205;-84
2022/10/28 09:58:58;;;;;;;17.27;4.57;;;20.80;99.90;;;;;;5054453;28;20202;-83
2022/10/28 10:01:31;;;;;;;16.40;4.27;;;20.80;99.90;;;;;;5056573;28;20669;-84
2022/10/28 10:03:58;;;;;;;15.10;3.90;;;20.80;99.90;;;;;;5056650;28;20213;-82
2022/10/28 10:06:28;;;;;;;12.87;4.47;;;20.80;99.90;;;;;;5056653;28;20235;-84
2022/10/28 10:08:56;;;;;;;19.17;4.20;;;20.90;99.90;;;;;;5056664;28;20210;-83
2022/10/28 10:11:31;;;;;;;10.43;3.50;;;21.00;99.90;;;;;;5056282;28;20561;-82
2022/10/28 10:14:01;;;;;;;10.03;3.87;;;21.20;99.90;;;;;;5056358;28;20238;-84
2022/10/28 10:16:38;;;;;;;14.17;4.07;;;21.20;99.90;;;;;;5056815;28;20214;-82
2022/10/28 10:19:07;;;;;;;8.10;3.80;;;21.30;99.90;;;;;;5056300;28;20275;-84
2022/10/28 10:21:42;;;;;;;15.40;4.07;;;21.40;99.90;;;;;;5056584;28;20223;-82
2022/10/28 10:24:31;;;;;;;10.20;3.53;;;21.50;99.90;;;;;;5056196;28;20939;-81
2022/10/28 10:27:01;;;;;;;17.23;4.00;;;21.40;99.90;;;;;;5056373;28;20227;-83
2022/10/28 10:29:29;;;;;;;10.13;3.67;;;21.50;99.90;;;;;;5056689;28;20186;-82
2022/10/28 10:32:18;;;;;;;14.00;3.90;;;21.50;99.90;;;;;;5056285;28;20203;-82
2022/10/28 10:34:50;;;;;;;20.13;3.93;;;21.60;99.90;;;;;;5056306;28;20211;-83
2022/10/28 10:37:20;;;;;;;15.93;4.50;;;21.70;99.90;;;;;;5056232;28;20593;-83
2022/10/28 10:40:05;;;;;;;11.97;4.27;;;21.70;99.90;;;;;;5056202;28;20252;-80
2022/10/28 10:42:32;;;;;;;12.50;4.37;;;22.00;99.90;;;;;;5056145;28;20195;-82
2022/10/28 10:45:02;;;;;;;13.43;4.07;;;22.00;99.90;;;;;;5056029;28;20197;-83
2022/10/28 10:47:30;;;;;;;13.73;4.40;;;22.10;99.90;;;;;;5055554;28;20222;-83
2022/10/28 10:50:20;;;;;;;17.80;4.30;;;22.20;99.90;;;;;;5056201;28;20206;-81
2022/10/28 10:52:53;;;;;;;15.33;4.53;;;22.40;99.90;;;;;;5055826;28;20287;-82
2022/10/28 10:55:32;;;;;;;15.27;4.40;;;22.40;99.90;;;;;;5055586;28;20690;-83
2022/10/28 10:57:59;;;;;;;14.53;4.20;;;22.30;99.90;;;;;;5055661;28;20198;-83
2022/10/28 11:00:32;;;;;;;15.53;4.20;;;22.30;99.90;;;;;;5055738;28;20202;-82
2022/10/28 11:03:01;;;;;;;17.40;4.23;;;22.20;99.90;;;;;;5055033;28;20657;-83
2022/10/28 11:05:28;;;;;;;18.60;4.00;;;22.20;99.90;;;;;;5055708;28;20202;-82
2022/10/28 11:08:03;;;;;;;12.77;3.87;;;22.10;99.90;;;;;;5055634;28;20229;-83
2022/10/28 11:10:33;;;;;;;16.47;4.27;;;22.10;99.90;;;;;;5054409;28;20564;-83
2022/10/28 11:13:03;;;;;;;14.57;4.13;;;21.90;99.90;;;;;;5055383;28;20219;-83
2022/10/28 11:15:32;;;;;;;11.97;3.73;;;22.00;99.90;;;;;;5055438;28;20249;-83
2022/10/28 11:18:02;;;;;;;14.63;4.17;;;21.90;99.90;;;;;;5055126;28;20206;-83
2022/10/28 11:20:42;;;;;;;18.67;3.93;;;21.90;99.90;;;;;;5055356;28;20214;-85
2022/10/28 11:23:37;;;;;;;16.07;4.63;;;22.00;99.90;;;;;;5055568;28;20613;-83
2022/10/28 11:26:07;;;;;;;14.57;3.73;;;22.20;99.90;;;;;;5055185;28;20206;-83
2022/10/28 11:28:49;;;;;;;17.77;4.53;;;22.40;99.90;;;;;;5056643;28;20217;-86
2022/10/28 11:31:32;;;;;;;14.97;4.13;;;22.50;99.90;;;;;;5054400;28;20207;-79
2022/10/28 11:34:19;;;;;;;14.60;3.77;;;22.50;99.90;;;;;;5053199;28;20203;-80
2022/10/28 11:36:52;;;;;;;16.00;3.77;;;22.70;99.90;;;;;;5049703;28;20202;-81
2022/10/28 11:39:21;;;;;;;15.60;4.73;;;22.60;99.90;;;;;;5054698;28;20206;-81
2022/10/28 11:42:10;;;;;;;15.20;3.60;;;22.70;99.90;;;;;;5055010;28;20281;-80
2022/10/28 11:44:47;;;;;;;11.73;4.30;;;22.70;99.90;;;;;;5054578;28;20684;-81
2022/10/28 11:47:37;;;;;;;12.20;4.13;;;22.70;99.90;;;;;;5054352;28;20598;-83
2022/10/28 11:50:20;;;;;;;15.53;4.00;;;22.50;99.90;;;;;;5054873;28;20717;-81
2022/10/28 11:53:12;;;;;;;14.43;4.70;;;22.40;99.90;;;;;;5054280;28;20213;-88
2022/10/28 11:55:42;;;;;;;24.37;5.27;;;22.50;99.90;;;;;;5052830;28;20218;-85
2022/10/28 11:58:22;;;;;;;15.53;3.80;;;22.40;99.90;;;;;;5050090;28;20209;-80
2022/10/28 12:00:59;;;;;;;13.67;3.23;;;22.50;99.90;;;;;;5054036;28;20213;-80
2022/10/28 12:03:40;;;;;;;13.00;4.27;;;22.40;99.90;;;;;;5053755;28;20203;-81
2022/10/28 12:06:16;;;;;;;12.77;4.30;;;22.40;99.90;;;;;;5050201;28;20556;-80
2022/10/28 12:09:01;;;;;;;9.53;3.87;;;22.50;99.90;;;;;;5049388;28;20215;-81
2022/10/28 12:11:45;;;;;;;9.83;3.80;;;22.60;99.90;;;;;;5054117;28;20195;-80
2022/10/28 12:14:22;;;;;;;10.37;3.47;;;22.50;99.90;;;;;;5051378;28;20233;-81
2022/10/28 12:16:56;;;;;;;11.77;3.90;;;22.40;99.90;;;;;;5051123;28;20198;-83
2022/10/28 12:19:27;;;;;;;18.30;4.33;;;22.50;99.90;;;;;;5048905;28;20203;-81
2022/10/28 12:22:02;;;;;;;15.33;4.10;;;22.40;99.90;;;;;;5053688;28;20187;-81
2022/10/28 12:24:30;;;;;;;13.10;3.97;;;22.50;99.90;;;;;;5050665;28;20281;-82
2022/10/28 12:27:01;;;;;;;14.30;4.00;;;22.50;99.90;;;;;;5053353;28;20199;-80
2022/10/28 12:29:32;;;;;;;8.90;3.73;;;22.50;99.90;;;;;;5054160;28;20225;-81
2022/10/28 12:32:03;;;;;;;9.67;3.90;;;22.50;99.90;;;;;;5019723;28;20207;-82
2022/10/28 12:34:36;;;;;;;8.70;3.33;;;22.50;99.90;;;;;;5014270;28;20212;-86
2022/10/28 12:37:08;;;;;;;13.80;3.50;;;22.40;99.90;;;;;;5014351;28;20212;-85
2022/10/28 12:39:39;;;;;;;14.73;3.73;;;22.50;99.90;;;;;;5014820;28;20212;-83
2022/10/28 12:42:14;;;;;;;15.07;4.60;;;22.60;99.90;;;;;;5014200;28;20659;-84
2022/10/28 12:44:42;;;;;;;22.77;4.57;;;22.60;99.90;;;;;;5014045;28;20207;-86
2022/10/28 12:47:17;;;;;;;12.43;3.50;;;22.60;99.90;;;;;;5014028;28;20215;-82
2022/10/28 12:49:54;;;;;;;19.97;4.10;;;22.60;99.90;;;;;;5013989;28;20188;-81
2022/10/28 12:52:39;;;;;;;14.20;4.13;;;22.60;99.90;;;;;;5013983;28;20207;-84
2022/10/28 12:55:17;;;;;;;16.13;4.37;;;22.50;99.90;;;;;;5013449;28;20685;-85
2022/10/28 12:57:47;;;;;;;14.73;3.93;;;22.60;99.90;;;;;;5013696;28;20218;-82